createdAt,value
2022-11-16T00:00:44.534Z,94526.94
2022-11-16T00:01:41.411Z,94498.00
2022-11-16T00:02:38.279Z,94507.63
2022-11-16T00:03:35.506Z,94305.00
2022-11-16T00:04:32.382Z,94482.03
2022-11-16T00:05:29.640Z,94443.69
2022-11-16T00:06:28.058Z,94440.47
2022-11-16T00:07:24.814Z,94495.97
2022-11-16T00:08:21.570Z,94486.84
2022-11-16T00:09:26.872Z,94483.97
2022-11-16T00:10:24.095Z,94503.59
2022-11-16T00:11:20.840Z,94465.75
2022-11-16T00:12:17.536Z,94477.88
2022-11-16T00:13:14.225Z,94461.59
2022-11-16T00:14:11.207Z,94423.59
2022-11-16T00:15:08.251Z,94479.88
2022-11-16T00:16:06.511Z,94440.06
2022-11-16T00:17:04.291Z,94478.19
2022-11-16T00:18:02.246Z,94350.75
2022-11-16T00:19:02.831Z,94486.88
2022-11-16T00:19:59.576Z,94228.31
2022-11-16T00:20:56.430Z,94293.56
2022-11-16T00:21:54.610Z,94491.25
2022-11-16T00:22:51.338Z,94395.84
2022-11-16T00:23:48.051Z,94475.72
2022-11-16T00:24:44.837Z,94282.50
2022-11-16T00:25:41.908Z,94463.06
2022-11-16T00:26:38.649Z,94476.13
2022-11-16T00:27:35.380Z,94468.41
2022-11-16T00:28:32.460Z,94478.97
2022-11-16T00:29:29.622Z,94319.88
2022-11-16T00:30:26.358Z,94403.66
2022-11-16T00:31:24.884Z,94465.59
2022-11-16T00:32:21.596Z,94462.97
2022-11-16T00:33:18.365Z,94489.19
2022-11-16T00:34:15.216Z,94454.31
2022-11-16T00:35:11.947Z,94472.19
2022-11-16T00:36:11.915Z,94430.78
2022-11-16T00:37:08.730Z,94466.81
2022-11-16T00:38:06.658Z,94379.97
2022-11-16T00:39:04.343Z,94462.72
2022-11-16T00:40:01.045Z,94354.50
2022-11-16T00:40:57.775Z,94471.34
2022-11-16T00:41:54.518Z,94471.00
2022-11-16T00:42:51.264Z,94451.09
2022-11-16T00:43:48.143Z,94280.44
2022-11-16T00:44:44.835Z,94474.56
2022-11-16T00:45:43.198Z,94416.38
2022-11-16T00:46:40.842Z,94464.63
2022-11-16T00:47:37.691Z,94418.72
2022-11-16T00:48:34.751Z,94475.00
2022-11-16T00:49:31.630Z,94279.31
2022-11-16T00:50:28.408Z,94434.81
2022-11-16T00:51:25.288Z,94458.97
2022-11-16T00:52:22.009Z,94394.56
2022-11-16T00:53:20.408Z,94282.09
2022-11-16T00:54:17.431Z,94447.28
2022-11-16T00:55:14.238Z,94462.19
2022-11-16T00:56:11.071Z,94457.75
2022-11-16T00:57:07.809Z,94468.22
2022-11-16T00:58:04.834Z,94432.03
2022-11-16T00:59:01.576Z,94412.66
2022-11-16T00:59:58.307Z,94469.41
2022-11-16T01:00:55.128Z,94414.31
2022-11-16T01:01:51.892Z,94428.66
2022-11-16T01:02:48.738Z,94395.38
2022-11-16T01:03:46.087Z,94282.91
2022-11-16T01:04:42.844Z,94433.34
2022-11-16T01:05:40.118Z,94420.84
2022-11-16T01:06:36.956Z,94430.13
2022-11-16T01:07:35.808Z,94468.19
2022-11-16T01:08:33.869Z,94428.78
2022-11-16T01:09:30.738Z,94444.69
2022-11-16T01:10:28.298Z,94458.59
2022-11-16T01:11:43.530Z,94432.81
2022-11-16T01:12:40.962Z,94422.97
2022-11-16T01:13:37.673Z,94438.06
2022-11-16T01:14:35.715Z,94370.13
2022-11-16T01:15:32.609Z,94398.25
2022-11-16T01:16:30.121Z,94416.75
2022-11-16T01:17:26.883Z,94411.50
2022-11-16T01:18:23.637Z,94439.25
2022-11-16T01:19:20.383Z,94435.25
2022-11-16T01:20:20.625Z,94423.97
2022-11-16T01:21:17.908Z,94437.25
2022-11-16T01:22:14.755Z,94433.66
2022-11-16T01:23:12.474Z,94297.78
2022-11-16T01:24:09.500Z,94366.91
2022-11-16T01:25:08.115Z,94417.94
2022-11-16T01:26:05.555Z,94441.47
2022-11-16T01:27:02.315Z,94425.38
2022-11-16T01:27:59.084Z,94374.28
2022-11-16T01:28:55.897Z,94439.78
2022-11-16T01:29:52.645Z,94434.84
2022-11-16T01:30:49.392Z,94443.69
2022-11-16T01:31:46.170Z,94438.41
2022-11-16T01:32:43.080Z,94424.19
2022-11-16T01:33:40.315Z,94412.09
2022-11-16T01:34:37.130Z,94408.28
2022-11-16T01:35:33.869Z,94417.13
2022-11-16T01:36:30.700Z,94389.38
2022-11-16T01:37:28.220Z,94385.69
2022-11-16T01:38:29.588Z,94414.31
2022-11-16T01:39:26.788Z,94397.88
2022-11-16T01:40:23.525Z,94423.56
2022-11-16T01:41:24.059Z,94253.75
2022-11-16T01:42:29.748Z,94389.00
2022-11-16T01:43:27.267Z,94438.03
2022-11-16T01:44:33.091Z,94401.66
2022-11-16T01:45:41.278Z,94422.38
2022-11-16T01:46:38.039Z,94393.63
2022-11-16T01:47:34.868Z,94425.59
2022-11-16T01:48:32.469Z,94427.97
2022-11-16T01:49:33.770Z,94405.47
2022-11-16T01:50:30.668Z,94419.56
2022-11-16T01:51:28.371Z,94422.38
2022-11-16T01:52:31.312Z,94319.88
2022-11-16T01:53:28.451Z,94347.22
2022-11-16T01:54:27.426Z,94384.97
2022-11-16T01:55:28.526Z,94305.22
2022-11-16T01:56:26.198Z,94422.34
2022-11-16T01:57:36.388Z,94409.63
2022-11-16T01:58:33.465Z,94246.78
2022-11-16T01:59:30.907Z,94330.75
2022-11-16T02:00:28.109Z,94431.22
2022-11-16T02:01:24.846Z,94332.16
2022-11-16T02:02:21.788Z,94415.13
2022-11-16T02:03:20.569Z,94390.97
2022-11-16T02:04:17.347Z,94411.06
2022-11-16T02:05:19.635Z,94399.81
2022-11-16T02:06:29.628Z,94360.66
2022-11-16T02:08:10.576Z,94316.94
2022-11-16T02:09:58.228Z,94375.50
2022-11-16T02:12:08.893Z,94330.66
2022-11-16T02:13:56.307Z,94334.63
2022-11-16T02:15:14.046Z,94376.41
2022-11-16T02:16:22.635Z,94371.22
2022-11-16T02:17:19.351Z,94376.25
2022-11-16T02:18:24.701Z,94377.25
2022-11-16T02:19:30.150Z,94382.94
2022-11-16T02:20:45.399Z,94373.34
2022-11-16T02:22:05.089Z,94368.50
2022-11-16T02:23:13.405Z,94365.69
2022-11-16T02:24:12.807Z,94369.66
2022-11-16T02:25:46.862Z,94370.31
2022-11-16T02:27:11.456Z,94368.31
2022-11-16T02:28:32.578Z,94374.00
2022-11-16T02:29:45.868Z,94373.81
2022-11-16T02:30:49.050Z,94384.81
2022-11-16T02:32:08.582Z,94379.22
2022-11-16T02:33:14.977Z,94393.69
2022-11-16T02:34:18.066Z,94365.66
2022-11-16T02:35:18.989Z,94381.19
2022-11-16T02:36:22.765Z,94378.81
2022-11-16T02:37:23.527Z,93943.03
2022-11-16T02:38:29.673Z,94357.03
2022-11-16T02:39:30.144Z,94420.34
2022-11-16T02:40:31.911Z,94292.34
2022-11-16T02:41:35.499Z,94334.75
2022-11-16T02:42:43.365Z,94398.25
2022-11-16T02:44:02.135Z,94383.78
2022-11-16T02:45:03.130Z,94390.91
2022-11-16T02:46:08.561Z,94357.97
2022-11-16T02:47:13.593Z,94384.16
2022-11-16T02:48:36.016Z,94363.88
2022-11-16T02:49:44.772Z,94390.38
2022-11-16T02:50:43.249Z,94288.56
2022-11-16T02:51:40.802Z,94363.41
2022-11-16T02:52:39.006Z,94215.22
2022-11-16T02:53:59.188Z,94353.25
2022-11-16T02:54:55.983Z,94379.34
2022-11-16T02:55:52.790Z,94391.56
2022-11-16T02:56:55.355Z,94365.53
2022-11-16T02:57:59.176Z,94346.50
2022-11-16T02:58:59.465Z,94357.94
2022-11-16T02:59:59.226Z,94364.41
2022-11-16T03:01:08.250Z,94373.31
2022-11-16T03:02:23.414Z,94366.09
2022-11-16T03:03:36.323Z,94398.63
2022-11-16T03:04:40.995Z,94378.72
2022-11-16T03:05:50.365Z,94131.34
2022-11-16T03:06:50.259Z,94360.75
2022-11-16T03:08:01.280Z,94169.88
2022-11-16T03:09:23.920Z,94309.66
2022-11-16T03:10:41.407Z,94358.47
2022-11-16T03:11:59.507Z,94409.94
2022-11-16T03:12:56.941Z,94319.75
2022-11-16T03:14:11.402Z,94350.63
2022-11-16T03:15:12.927Z,94296.19
2022-11-16T03:16:40.994Z,94348.72
2022-11-16T03:17:44.436Z,94205.31
2022-11-16T03:18:46.799Z,94171.88
2022-11-16T03:20:00.615Z,94330.78
2022-11-16T03:21:26.816Z,94274.53
2022-11-16T03:22:28.447Z,94349.34
2022-11-16T03:23:25.294Z,94402.25
2022-11-16T03:24:22.311Z,94350.94
2022-11-16T03:25:21.857Z,94325.34
2022-11-16T03:26:24.002Z,94305.03
2022-11-16T03:27:43.460Z,94352.44
2022-11-16T03:29:07.752Z,94352.63
2022-11-16T03:30:13.423Z,94354.88
2022-11-16T03:31:21.547Z,94041.88
2022-11-16T03:32:41.947Z,94372.63
2022-11-16T03:33:49.107Z,94334.69
2022-11-16T03:35:06.352Z,94382.84
2022-11-16T03:36:33.758Z,94307.22
2022-11-16T03:37:33.969Z,94306.97
2022-11-16T03:38:35.459Z,94340.47
2022-11-16T03:39:38.283Z,94365.16
2022-11-16T03:40:37.686Z,94305.47
2022-11-16T03:41:39.162Z,94202.72
2022-11-16T03:42:37.789Z,94308.56
2022-11-16T03:43:38.111Z,94252.72
2022-11-16T03:44:36.690Z,94119.78
2022-11-16T03:45:34.039Z,94307.22
2022-11-16T03:46:30.940Z,94313.88
2022-11-16T03:47:27.681Z,94366.47
2022-11-16T03:48:24.937Z,94277.47
2022-11-16T03:49:23.398Z,94269.72
2022-11-16T03:50:20.252Z,94323.22
2022-11-16T03:51:16.967Z,94367.44
2022-11-16T03:52:18.871Z,94302.94
2022-11-16T03:53:15.762Z,94359.03
2022-11-16T03:54:12.455Z,94333.94
2022-11-16T03:55:09.708Z,94156.03
2022-11-16T03:56:06.641Z,94391.09
2022-11-16T03:57:03.552Z,94366.88
2022-11-16T03:58:00.357Z,94178.44
2022-11-16T03:58:57.081Z,94206.38
2022-11-16T03:59:53.798Z,94366.69
2022-11-16T04:00:50.607Z,94361.38
2022-11-16T04:01:47.401Z,94374.78
2022-11-16T04:02:44.171Z,94264.09
2022-11-16T04:03:40.944Z,94376.31
2022-11-16T04:04:56.745Z,94356.56
2022-11-16T04:06:11.816Z,94346.97
2022-11-16T04:07:27.822Z,94163.06
2022-11-16T04:08:43.076Z,94286.53
2022-11-16T04:09:58.506Z,94337.50
2022-11-16T04:11:13.742Z,94347.22
2022-11-16T04:12:29.718Z,94334.75
2022-11-16T04:13:51.652Z,94273.91
2022-11-16T04:15:07.074Z,94264.06
2022-11-16T04:16:22.333Z,94340.97
2022-11-16T04:17:37.957Z,94303.03
2022-11-16T04:18:53.443Z,94336.34
2022-11-16T04:20:08.722Z,94144.00
2022-11-16T04:21:25.089Z,94342.00
2022-11-16T04:22:49.016Z,94249.75
2022-11-16T04:24:07.444Z,94129.53
2022-11-16T04:25:14.311Z,94294.53
2022-11-16T04:26:11.784Z,94135.66
2022-11-16T04:27:32.637Z,94337.88
2022-11-16T04:28:34.450Z,94307.19
2022-11-16T04:29:32.320Z,94233.69
2022-11-16T04:30:51.739Z,94270.28
2022-11-16T04:32:07.077Z,94330.69
2022-11-16T04:33:22.594Z,94288.97
2022-11-16T04:34:38.036Z,94312.59
2022-11-16T04:35:53.485Z,94110.31
2022-11-16T04:37:28.294Z,94315.44
2022-11-16T04:38:25.088Z,94121.88
2022-11-16T04:39:22.386Z,94314.19
2022-11-16T04:40:25.408Z,94226.19
2022-11-16T04:41:40.530Z,94329.13
2022-11-16T04:42:37.303Z,94282.53
2022-11-16T04:43:34.056Z,94327.28
2022-11-16T04:44:54.025Z,94268.63
2022-11-16T04:46:09.018Z,94266.03
2022-11-16T04:47:08.731Z,94284.34
2022-11-16T04:48:06.198Z,94262.78
2022-11-16T04:49:02.972Z,94316.28
2022-11-16T04:49:59.677Z,94301.38
2022-11-16T04:50:56.416Z,94322.84
2022-11-16T04:51:53.480Z,94219.44
2022-11-16T04:52:50.293Z,94325.66
2022-11-16T04:53:47.350Z,94278.81
2022-11-16T04:54:44.099Z,94316.50
2022-11-16T04:55:40.893Z,94167.28
2022-11-16T04:56:37.644Z,94291.97
2022-11-16T04:57:34.459Z,94302.00
2022-11-16T04:58:31.362Z,94229.13
2022-11-16T04:59:28.345Z,94261.59
2022-11-16T05:00:25.807Z,94242.88
2022-11-16T05:01:42.537Z,94255.50
2022-11-16T05:02:39.387Z,94211.31
2022-11-16T05:03:36.135Z,94311.06
2022-11-16T05:04:32.921Z,94295.91
2022-11-16T05:05:29.779Z,94304.06
2022-11-16T05:06:26.560Z,94261.56
2022-11-16T05:07:23.406Z,94261.81
2022-11-16T05:08:20.179Z,94285.88
2022-11-16T05:09:16.924Z,94251.72
2022-11-16T05:10:14.268Z,94299.34
2022-11-16T05:11:11.005Z,94121.94
2022-11-16T05:12:08.720Z,94223.09
2022-11-16T05:13:05.536Z,94299.53
2022-11-16T05:14:02.584Z,94221.38
2022-11-16T05:14:59.513Z,94310.38
2022-11-16T05:15:56.240Z,94281.69
2022-11-16T05:16:53.026Z,94292.38
2022-11-16T05:17:51.165Z,94295.97
2022-11-16T05:19:10.578Z,94254.56
2022-11-16T05:20:26.349Z,94297.34
2022-11-16T05:21:23.087Z,94310.25
2022-11-16T05:22:19.989Z,94273.88
2022-11-16T05:23:35.326Z,94324.09
2022-11-16T05:24:35.026Z,94270.25
2022-11-16T05:25:36.430Z,94305.22
2022-11-16T05:26:33.775Z,94317.41
2022-11-16T05:27:30.603Z,94265.06
2022-11-16T05:28:27.340Z,94270.38
2022-11-16T05:29:24.262Z,94303.75
2022-11-16T05:30:21.098Z,94247.97
2022-11-16T05:31:17.879Z,94276.69
2022-11-16T05:32:14.654Z,94296.94
2022-11-16T05:33:11.446Z,94143.38
2022-11-16T05:34:09.460Z,94313.81
2022-11-16T05:35:06.406Z,94299.09
2022-11-16T05:36:03.174Z,94115.09
2022-11-16T05:37:00.406Z,94303.19
2022-11-16T05:37:57.099Z,94305.22
2022-11-16T05:38:56.240Z,94272.06
2022-11-16T05:39:54.992Z,94193.47
2022-11-16T05:40:51.836Z,94295.28
2022-11-16T05:41:48.645Z,94301.53
2022-11-16T05:42:45.468Z,94295.59
2022-11-16T05:43:42.237Z,94299.59
2022-11-16T05:44:39.115Z,94215.47
2022-11-16T05:45:35.868Z,94263.44
2022-11-16T05:46:33.149Z,94083.81
2022-11-16T05:47:29.880Z,94320.28
2022-11-16T05:48:26.607Z,94309.56
2022-11-16T05:49:24.256Z,94267.44
2022-11-16T05:50:21.140Z,94336.03
2022-11-16T05:51:17.922Z,94112.28
2022-11-16T05:52:14.679Z,94308.16
2022-11-16T05:53:11.421Z,94322.63
2022-11-16T05:54:11.108Z,94329.91
2022-11-16T05:55:08.477Z,94127.56
2022-11-16T05:56:05.655Z,94330.66
2022-11-16T05:57:02.341Z,94311.78
2022-11-16T05:57:59.126Z,94295.66
2022-11-16T05:58:56.338Z,94256.81
2022-11-16T05:59:53.093Z,94305.03
2022-11-16T06:00:51.074Z,94303.00
2022-11-16T06:01:49.523Z,94311.44
2022-11-16T06:02:46.384Z,94303.81
2022-11-16T06:03:43.151Z,94237.09
2022-11-16T06:04:39.900Z,94301.19
2022-11-16T06:05:40.532Z,94267.09
2022-11-16T06:06:37.840Z,94303.00
2022-11-16T06:07:34.648Z,94311.88
2022-11-16T06:08:31.686Z,94301.81
2022-11-16T06:09:28.611Z,94312.66
2022-11-16T06:10:25.760Z,94054.97
2022-11-16T06:11:22.779Z,94233.09
2022-11-16T06:12:19.604Z,94296.81
2022-11-16T06:13:17.067Z,94214.63
2022-11-16T06:14:13.841Z,94266.44
2022-11-16T06:15:10.706Z,94179.84
2022-11-16T06:16:07.800Z,94126.50
2022-11-16T06:17:04.580Z,94325.78
2022-11-16T06:18:01.281Z,94260.44
2022-11-16T06:18:59.302Z,94240.97
2022-11-16T06:19:56.008Z,94245.38
2022-11-16T06:20:53.631Z,94253.78
2022-11-16T06:21:50.346Z,94312.28
2022-11-16T06:22:47.099Z,94313.63
2022-11-16T06:23:43.957Z,94276.47
2022-11-16T06:24:40.681Z,94294.38
2022-11-16T06:25:39.791Z,94295.38
2022-11-16T06:26:37.298Z,94297.75
2022-11-16T06:27:34.112Z,94227.06
2022-11-16T06:28:31.107Z,94314.28
2022-11-16T06:29:28.015Z,94268.66
2022-11-16T06:30:25.212Z,94296.78
2022-11-16T06:31:22.441Z,94321.03
2022-11-16T06:32:19.450Z,94293.59
2022-11-16T06:33:16.960Z,94296.31
2022-11-16T06:34:13.798Z,94237.63
2022-11-16T06:35:10.959Z,94303.47
2022-11-16T06:36:08.146Z,94316.19
2022-11-16T06:37:05.608Z,94344.31
2022-11-16T06:38:02.360Z,94314.56
2022-11-16T06:39:01.308Z,94171.69
2022-11-16T06:39:58.042Z,94290.13
2022-11-16T06:40:58.053Z,94303.03
2022-11-16T06:41:54.801Z,94274.28
2022-11-16T06:42:51.625Z,94320.88
2022-11-16T06:43:48.408Z,93980.38
2022-11-16T06:44:45.149Z,94284.88
2022-11-16T06:45:41.912Z,94287.50
2022-11-16T06:46:38.698Z,94291.75
2022-11-16T06:47:36.039Z,94273.28
2022-11-16T06:48:33.979Z,94305.47
2022-11-16T06:49:31.093Z,94243.56
2022-11-16T06:50:27.819Z,94311.78
2022-11-16T06:51:27.410Z,94268.91
2022-11-16T06:52:24.130Z,94233.88
2022-11-16T06:53:27.542Z,94135.84
2022-11-16T06:54:34.992Z,94294.81
2022-11-16T06:55:32.069Z,94300.00
2022-11-16T06:56:29.361Z,94224.13
2022-11-16T06:57:26.128Z,94093.78
2022-11-16T06:58:22.885Z,94284.25
2022-11-16T06:59:19.751Z,94308.00
2022-11-16T07:00:17.308Z,94305.09
2022-11-16T07:01:14.208Z,94172.09
2022-11-16T07:02:11.790Z,94234.94
2022-11-16T07:03:08.623Z,94285.97
2022-11-16T07:04:05.456Z,94263.91
2022-11-16T07:05:03.698Z,94175.59
2022-11-16T07:06:09.915Z,94299.22
2022-11-16T07:07:06.786Z,94262.31
2022-11-16T07:08:03.601Z,94275.22
2022-11-16T07:09:00.358Z,94267.78
2022-11-16T07:09:57.087Z,94240.25
2022-11-16T07:10:53.777Z,94085.56
2022-11-16T07:11:50.505Z,94194.94
2022-11-16T07:12:47.238Z,94164.09
2022-11-16T07:13:43.974Z,94302.75
2022-11-16T07:14:41.081Z,94304.94
2022-11-16T07:15:37.868Z,94307.72
2022-11-16T07:16:36.350Z,94298.84
2022-11-16T07:17:42.882Z,94270.19
2022-11-16T07:18:41.416Z,94295.19
2022-11-16T07:19:38.194Z,94274.69
2022-11-16T07:20:37.779Z,94288.91
2022-11-16T07:21:34.628Z,94292.06
2022-11-16T07:22:33.063Z,94290.97
2022-11-16T07:23:31.115Z,94152.88
2022-11-16T07:24:27.873Z,94274.19
2022-11-16T07:25:24.628Z,94219.56
2022-11-16T07:26:21.844Z,94291.03
2022-11-16T07:27:18.573Z,93956.44
2022-11-16T07:28:15.406Z,94265.97
2022-11-16T07:29:12.145Z,94307.47
2022-11-16T07:30:09.434Z,94288.81
2022-11-16T07:31:11.792Z,94287.38
2022-11-16T07:32:08.491Z,94271.44
2022-11-16T07:33:05.215Z,94269.28
2022-11-16T07:34:01.913Z,94247.56
2022-11-16T07:34:59.596Z,94105.59
2022-11-16T07:36:04.628Z,94299.41
2022-11-16T07:37:01.383Z,94304.16
2022-11-16T07:37:58.253Z,94249.22
2022-11-16T07:38:56.245Z,94285.34
2022-11-16T07:39:53.118Z,94056.97
2022-11-16T07:40:49.853Z,94290.63
2022-11-16T07:41:47.109Z,94297.47
2022-11-16T07:42:45.403Z,94233.19
2022-11-16T07:43:42.631Z,94270.94
2022-11-16T07:44:39.479Z,94284.22
2022-11-16T07:45:36.214Z,94274.66
2022-11-16T07:46:48.880Z,94293.22
2022-11-16T07:47:45.824Z,94220.59
2022-11-16T07:48:42.893Z,94247.28
2022-11-16T07:49:40.063Z,94180.13
2022-11-16T07:50:36.916Z,94240.19
2022-11-16T07:51:33.664Z,94277.34
2022-11-16T07:52:30.390Z,94284.00
2022-11-16T07:53:27.215Z,94154.06
2022-11-16T07:54:24.198Z,94297.59
2022-11-16T07:55:21.031Z,94302.56
2022-11-16T07:56:17.745Z,94277.75
2022-11-16T07:57:14.480Z,94226.78
2022-11-16T07:58:11.285Z,94272.97
2022-11-16T07:59:08.415Z,94230.28
2022-11-16T08:00:06.183Z,94232.31
2022-11-16T08:01:07.681Z,94267.28
2022-11-16T08:02:04.506Z,94102.16
2022-11-16T08:03:01.248Z,94227.66
2022-11-16T08:03:58.157Z,94284.06
2022-11-16T08:04:55.182Z,94284.38
2022-11-16T08:05:59.736Z,94157.19
2022-11-16T08:06:56.541Z,94281.13
2022-11-16T08:07:53.501Z,94256.09
2022-11-16T08:08:53.772Z,94284.63
2022-11-16T08:09:54.718Z,94192.69
2022-11-16T08:10:51.477Z,94257.56
2022-11-16T08:11:48.240Z,94105.00
2022-11-16T08:12:45.000Z,94264.56
2022-11-16T08:13:42.834Z,94253.09
2022-11-16T08:14:39.667Z,94242.38
2022-11-16T08:15:36.362Z,94165.03
2022-11-16T08:16:33.488Z,94267.88
2022-11-16T08:17:30.792Z,94193.13
2022-11-16T08:18:27.629Z,94243.91
2022-11-16T08:19:24.371Z,94220.53
2022-11-16T08:20:21.056Z,94249.34
2022-11-16T08:21:19.143Z,94229.00
2022-11-16T08:22:15.891Z,94262.34
2022-11-16T08:23:12.604Z,94154.69
2022-11-16T08:24:09.554Z,94204.38
2022-11-16T08:25:07.033Z,94250.72
2022-11-16T08:26:07.053Z,94203.59
2022-11-16T08:27:03.876Z,94220.94
2022-11-16T08:28:00.601Z,94252.38
2022-11-16T08:28:57.447Z,94236.84
2022-11-16T08:29:54.216Z,94198.28
2022-11-16T08:30:54.004Z,94204.94
2022-11-16T08:31:50.969Z,94223.78
2022-11-16T08:32:47.851Z,94232.88
2022-11-16T08:33:44.921Z,94110.81
2022-11-16T08:34:41.674Z,94225.88
2022-11-16T08:35:38.440Z,94237.88
2022-11-16T08:36:35.623Z,94228.81
2022-11-16T08:37:32.433Z,94211.34
2022-11-16T08:38:29.188Z,94222.53
2022-11-16T08:39:25.946Z,94099.81
2022-11-16T08:40:22.678Z,94238.03
2022-11-16T08:41:20.815Z,94224.09
2022-11-16T08:42:17.565Z,94233.34
2022-11-16T08:43:14.329Z,94240.91
2022-11-16T08:44:11.668Z,94251.53
2022-11-16T08:45:08.731Z,94217.16
2022-11-16T08:46:09.095Z,94154.53
2022-11-16T08:47:05.826Z,94206.38
2022-11-16T08:48:04.458Z,94232.31
2022-11-16T08:49:01.217Z,94251.63
2022-11-16T08:49:58.174Z,94174.50
2022-11-16T08:52:09.072Z,94169.50
2022-11-16T08:53:05.796Z,94234.34
2022-11-16T08:54:03.979Z,94204.44
2022-11-16T08:55:00.698Z,94170.91
2022-11-16T08:56:09.689Z,94217.91
2022-11-16T08:57:06.475Z,94224.88
2022-11-16T08:58:03.886Z,94029.72
2022-11-16T08:59:00.901Z,94233.88
2022-11-16T08:59:57.692Z,94232.16
2022-11-16T09:00:55.169Z,94201.06
2022-11-16T09:01:52.037Z,94199.00
2022-11-16T09:02:49.059Z,94223.28
2022-11-16T09:03:48.363Z,94211.63
2022-11-16T09:04:45.123Z,94105.22
2022-11-16T09:05:42.645Z,94119.72
2022-11-16T09:06:39.367Z,94061.50
2022-11-16T09:07:36.173Z,94223.59
2022-11-16T09:08:34.173Z,94209.28
2022-11-16T09:09:31.163Z,94080.78
2022-11-16T09:10:27.952Z,94037.25
2022-11-16T09:11:25.979Z,94209.50
2022-11-16T09:12:22.934Z,94230.94
2022-11-16T09:14:34.190Z,93987.59
2022-11-16T09:15:35.005Z,94194.47
2022-11-16T09:16:31.804Z,94202.09
2022-11-16T09:17:28.815Z,94193.97
2022-11-16T09:18:26.113Z,94125.31
2022-11-16T09:19:22.882Z,94174.13
2022-11-16T09:20:19.605Z,94114.69
2022-11-16T09:21:25.628Z,94152.38
2022-11-16T09:22:22.354Z,94178.22
2022-11-16T09:23:24.880Z,94016.63
2022-11-16T09:24:22.195Z,94224.75
2022-11-16T09:25:19.170Z,94137.72
2022-11-16T09:26:19.129Z,94074.97
2022-11-16T09:27:16.550Z,94072.50
2022-11-16T09:28:13.314Z,94191.19
2022-11-16T09:29:14.854Z,94184.53
2022-11-16T09:30:11.965Z,94174.78
2022-11-16T09:31:10.234Z,94195.47
2022-11-16T09:32:07.022Z,94128.56
2022-11-16T09:33:03.767Z,94193.94
2022-11-16T09:34:00.704Z,94167.19
2022-11-16T09:34:57.417Z,94124.00
2022-11-16T09:35:54.133Z,94158.09
2022-11-16T09:36:51.007Z,94147.94
2022-11-16T09:37:47.701Z,94177.00
2022-11-16T09:39:17.770Z,94164.69
2022-11-16T09:40:04.056Z,93986.63
2022-11-16T09:42:47.090Z,94147.19
2022-11-16T09:44:06.045Z,94093.25
2022-11-16T09:45:05.586Z,94145.69
2022-11-16T09:46:08.182Z,94148.06
2022-11-16T09:47:16.038Z,94000.16
2022-11-16T09:48:17.009Z,94156.13
2022-11-16T09:49:22.050Z,94006.25
2022-11-16T09:53:35.548Z,94120.72
2022-11-16T09:54:40.297Z,94136.19
2022-11-16T09:55:47.963Z,93979.66
2022-11-16T09:56:49.198Z,94121.22
2022-11-16T09:57:48.791Z,94053.63
2022-11-16T09:59:18.362Z,94077.59
2022-11-16T10:00:20.356Z,94083.81
2022-11-16T10:01:29.591Z,94046.47
2022-11-16T10:02:37.882Z,94081.25
2022-11-16T10:03:43.609Z,93918.06
2022-11-16T10:04:40.281Z,94106.72
2022-11-16T10:05:39.070Z,94097.31
2022-11-16T10:06:49.466Z,93979.75
2022-11-16T10:07:52.304Z,94111.41
2022-11-16T10:08:56.820Z,94055.31
2022-11-16T10:09:56.211Z,94072.81
2022-11-16T10:11:06.629Z,94093.63
2022-11-16T10:12:24.260Z,94057.53
2022-11-16T10:13:33.952Z,94109.25
2022-11-16T10:14:42.816Z,94088.38
2022-11-16T10:15:39.505Z,94077.06
2022-11-16T10:16:49.159Z,94082.88
2022-11-16T10:18:03.878Z,94076.41
2022-11-16T10:19:14.448Z,94055.94
2022-11-16T10:20:31.125Z,94071.97
2022-11-16T10:21:46.212Z,94071.91
2022-11-16T10:23:13.706Z,94049.50
2022-11-16T10:24:41.830Z,94062.56
2022-11-16T10:25:42.063Z,94074.06
2022-11-16T10:26:38.997Z,94065.84
2022-11-16T10:28:29.406Z,93983.31
2022-11-16T10:29:57.262Z,94057.31
2022-11-16T10:31:09.850Z,94051.81
2022-11-16T10:32:28.184Z,94007.91
2022-11-16T10:33:35.593Z,93933.19
2022-11-16T10:35:25.141Z,94053.03
2022-11-16T10:36:27.530Z,94032.91
2022-11-16T10:37:31.545Z,93922.84
2022-11-16T10:38:33.140Z,94080.69
2022-11-16T10:39:33.248Z,93985.19
2022-11-16T10:40:37.945Z,93991.91
2022-11-16T10:41:47.008Z,93991.59
2022-11-16T10:42:51.945Z,93867.47
2022-11-16T10:43:48.893Z,93984.97
2022-11-16T10:45:02.556Z,93975.06
2022-11-16T10:46:00.383Z,94053.16
2022-11-16T10:47:04.754Z,94062.81
2022-11-16T10:48:19.912Z,94049.84
2022-11-16T10:49:29.262Z,94022.34
2022-11-16T10:50:35.858Z,93779.84
2022-11-16T10:51:32.578Z,93909.06
2022-11-16T10:52:29.601Z,94035.19
2022-11-16T10:53:29.839Z,93980.22
2022-11-16T10:54:26.556Z,94032.09
2022-11-16T10:55:24.499Z,93992.72
2022-11-16T10:56:27.392Z,93890.91
2022-11-16T10:57:26.557Z,93988.22
2022-11-16T10:58:23.345Z,94044.69
2022-11-16T10:59:20.728Z,93989.00
2022-11-16T11:00:33.459Z,94019.44
2022-11-16T11:01:32.813Z,94053.69
2022-11-16T11:02:34.712Z,94039.88
2022-11-16T11:03:32.802Z,94032.75
2022-11-16T11:04:31.673Z,94020.59
2022-11-16T11:05:28.994Z,93938.75
2022-11-16T11:06:26.898Z,93956.13
2022-11-16T11:07:32.525Z,94041.22
2022-11-16T11:08:31.234Z,94028.53
2022-11-16T11:09:34.147Z,94017.16
2022-11-16T11:10:36.980Z,93826.03
2022-11-16T11:11:52.226Z,94019.59
2022-11-16T11:13:25.063Z,94006.94
2022-11-16T11:14:21.779Z,94030.97
2022-11-16T11:15:26.874Z,93910.44
2022-11-16T11:16:24.096Z,93947.34
2022-11-16T11:17:20.794Z,94029.47
2022-11-16T11:18:23.254Z,94003.63
2022-11-16T11:19:27.547Z,94003.47
2022-11-16T11:20:24.566Z,94037.72
2022-11-16T11:21:26.810Z,93846.69
2022-11-16T11:22:23.673Z,93955.97
2022-11-16T11:23:24.365Z,93989.81
2022-11-16T11:25:48.708Z,94001.50
2022-11-16T11:26:54.164Z,93962.59
2022-11-16T11:28:06.773Z,93998.44
2022-11-16T11:29:20.657Z,93937.38
2022-11-16T11:30:22.245Z,93992.72
2022-11-16T11:31:43.969Z,93967.22
2022-11-16T11:32:40.875Z,93944.59
2022-11-16T11:34:02.388Z,93991.22
2022-11-16T11:35:01.043Z,93855.84
2022-11-16T11:36:13.805Z,93984.09
2022-11-16T11:37:19.171Z,93966.50
2022-11-16T11:39:37.596Z,93808.03
2022-11-16T11:42:22.954Z,93968.47
2022-11-16T11:43:24.862Z,93858.69
2022-11-16T11:44:30.028Z,93837.06
2022-11-16T11:45:50.709Z,93979.41
2022-11-16T11:47:50.514Z,93962.66
2022-11-16T11:48:35.672Z,93950.22
2022-11-16T11:49:40.462Z,93851.81
2022-11-16T11:51:02.611Z,93955.78
2022-11-16T11:52:27.784Z,93963.84
2022-11-16T11:53:36.275Z,93927.78
2022-11-16T11:54:45.638Z,93925.25
2022-11-16T11:55:42.945Z,93962.34
2022-11-16T11:56:39.686Z,93929.97
2022-11-16T11:57:42.108Z,93958.28
2022-11-16T11:58:41.356Z,93945.56
2022-11-16T11:59:38.201Z,93895.41
2022-11-16T12:01:00.953Z,93942.97
2022-11-16T12:02:03.513Z,93938.91
2022-11-16T12:03:22.736Z,93732.06
2022-11-16T12:04:44.070Z,93946.44
2022-11-16T12:06:17.948Z,93938.06
2022-11-16T12:07:17.722Z,93947.06
2022-11-16T12:08:14.807Z,93942.75
2022-11-16T12:09:21.872Z,93951.41
2022-11-16T12:10:21.290Z,93929.41
2022-11-16T12:11:36.016Z,93951.63
2022-11-16T12:12:51.232Z,93932.34
2022-11-16T12:13:57.960Z,93932.97
2022-11-16T12:15:18.198Z,93922.84
2022-11-16T12:16:43.384Z,93921.31
2022-11-16T12:18:17.602Z,93920.88
2022-11-16T12:19:32.833Z,93947.16